RYR1309 EBCI-LIMJ
Flight info
| Callsign | RYR1309 |
|---|---|
| Flight time | N/A |
| Altitude | 39000 |
| Route | RITAX UT27 ROUSY DCT GTQ DCT DEVDI DCT ODINA/N0391F190 DCT SRN DCT VOG M858 RUCFO |
| Aircraft | B738/M-SDE2E3FGHIRWXY/LB1 |
Departure
| Time | 2026-04-30 11:14 |
|---|---|
| Airport | Brussels South Charleroi Airport (EBCI) |
Arrival
| Time | N/A |
|---|---|
| Airport | Genoa Cristoforo Colombo Airport (LIMJ) |
| Time | Latitude | Longitude | Altitude | Speed | Heading |
|---|---|---|---|---|---|
| 2026-04-30 10:52 | 50.46767 | 4.46752 | 623 ft | 0 kts | 335° |
| 2026-04-30 11:03 | 50.46764 | 4.46754 | 626 ft | 2 kts | 335° |
| 2026-04-30 11:03 | 50.46748 | 4.46766 | 619 ft | 3 kts | 335° |
| 2026-04-30 11:04 | 50.46724 | 4.46798 | 619 ft | 3 kts | 257° |
| 2026-04-30 11:04 | 50.46727 | 4.46814 | 626 ft | 2 kts | 245° |
| 2026-04-30 11:04 | 50.46734 | 4.46837 | 622 ft | 1 kts | 245° |
| 2026-04-30 11:04 | 50.46735 | 4.46841 | 627 ft | 0 kts | 245° |
| 2026-04-30 11:09 | 50.46730 | 4.46825 | 624 ft | 3 kts | 245° |
| 2026-04-30 11:09 | 50.46707 | 4.46779 | 621 ft | 8 kts | 213° |
| 2026-04-30 11:10 | 50.46643 | 4.46799 | 615 ft | 13 kts | 156° |
| 2026-04-30 11:10 | 50.46598 | 4.46770 | 620 ft | 9 kts | 244° |
| 2026-04-30 11:10 | 50.46546 | 4.46594 | 617 ft | 26 kts | 246° |
| 2026-04-30 11:10 | 50.46455 | 4.46276 | 614 ft | 35 kts | 246° |
| 2026-04-30 11:11 | 50.46354 | 4.45928 | 614 ft | 34 kts | 245° |
| 2026-04-30 11:11 | 50.46258 | 4.45599 | 617 ft | 32 kts | 245° |
| 2026-04-30 11:11 | 50.46168 | 4.45289 | 620 ft | 30 kts | 245° |
| 2026-04-30 11:11 | 50.46084 | 4.44998 | 617 ft | 28 kts | 245° |
| 2026-04-30 11:12 | 50.46004 | 4.44725 | 617 ft | 27 kts | 245° |
| 2026-04-30 11:12 | 50.45926 | 4.44471 | 619 ft | 26 kts | 235° |
| 2026-04-30 11:12 | 50.45817 | 4.44241 | 613 ft | 26 kts | 232° |
| 2026-04-30 11:12 | 50.45711 | 4.44027 | 613 ft | 24 kts | 233° |
| 2026-04-30 11:13 | 50.45628 | 4.44028 | 617 ft | 8 kts | 104° |
| 2026-04-30 11:13 | 50.45642 | 4.44100 | 617 ft | 7 kts | 66° |
| 2026-04-30 11:13 | 50.45726 | 4.44394 | 619 ft | 72 kts | 65° |
| 2026-04-30 11:13 | 50.46061 | 4.45559 | 630 ft | 157 kts | 66° |
| 2026-04-30 11:14 | 50.46573 | 4.47303 | 1350 ft | 187 kts | 66° |
| 2026-04-30 11:14 | 50.47167 | 4.49256 | 2255 ft | 209 kts | 61° |
| 2026-04-30 11:14 | 50.48284 | 4.50811 | 3284 ft | 229 kts | 33° |
| 2026-04-30 11:14 | 50.49623 | 4.52281 | 4022 ft | 239 kts | 57° |
| 2026-04-30 11:15 | 50.50320 | 4.54630 | 4985 ft | 237 kts | 80° |